• Join FlightAware (Why Join?)
  • Login
  • US Flag 
05:24PM EDT


 

Airport Tracker/Info


-or-


 

Live Flight TrackerFlight Track Log ✈ TGW436 ✈ 29-Jun-2013 ✈ YMML / MEL - YBAS / ASP

Flight Track Log - Related Links

Times and Time Zones

All times are in EDT time to prevent confusion due to time zone crossing. See the TGW436 flight status page for this flight to view local times or setup timezone preferences in your user account.

Time Position Orientation Groundspeed Altitude Reporting Facility
EDT Latitude Longitude Course Direction KTS MPH feet Rate Location/Type
07:24PM -37.6925 144.8423 168° South 169 194 1,700  Level Aus ATC (RADAR)
07:24PM -37.6990 144.8440 171° South 146 168 1,900 1,380 Climbing FlightAware
07:24PM -37.7100 144.8460 172° South 146 168 2,300 1,620 Climbing FlightAware
07:25PM -37.7350 144.8500 172° South 165 190 3,300 2,460 Climbing FlightAware
07:25PM -37.7394 144.8494 172° South 159 183 3,900 900 Climbing Aus ATC (RADAR)
07:25PM -37.7490 144.8380 214° Southwest 195 224 3,600 -240 Descending FlightAware
07:25PM -37.7510 144.8250 259° West 212 244 3,800 1,140 Climbing FlightAware
07:26PM -37.7460 144.7840 279° West 246 283 4,400 1,980 Climbing FlightAware
07:26PM -37.7380 144.7400 283° West 268 308 5,800 3,300 Climbing FlightAware
07:27PM -37.7310 144.6930 281° West 265 305 7,700 3,240 Climbing FlightAware
07:27PM -37.7260 144.6550 279° West 273 314 8,800 2,280 Climbing FlightAware
07:28PM -37.7050 144.5930 293° West 299 344 10,400 1,920 Climbing FlightAware
07:29PM -37.6492 144.5548 293° West 325 374 11,500 1,020 Climbing Aus ATC (RADAR)
07:29PM -37.6490 144.5550 293° West 346 398 11,100 2,580 Descending FlightAware
07:29PM -37.5915 144.5158 293° West 344 396 13,200 2,640 Climbing Aus ATC (RADAR)
07:29PM -37.5820 144.5100 293° West 347 399 13,100 1,380 Descending FlightAware
07:30PM -37.5330 144.4760 331° Northwest 367 422 14,200 1,980 Climbing FlightAware
07:31PM -37.4730 144.4350 332° Northwest 370 426 15,600 1,980 Climbing FlightAware
07:31PM -37.4010 144.3850 331° Northwest 388 447 17,100 2,280 Climbing FlightAware
07:32PM -37.3466 144.3481 331° Northwest 386 444 18,600 1,980 Climbing Aus ATC (RADAR)
07:32PM -37.3120 144.3240 331° Northwest 398 458 19,000 1,980 Climbing FlightAware
07:33PM -37.2490 144.2817 331° Northwest 397 457 20,600 1,920 Climbing Aus ATC (RADAR)
07:33PM -37.2380 144.2740 331° Northwest 406 467 20,400 1,920 Descending FlightAware
07:34PM -37.1828 144.2370 331° Northwest 401 461 21,900 1,860 Climbing Aus ATC (RADAR)
07:34PM -37.1790 144.2340 331° Northwest 401 461 21,500 1,680 Descending FlightAware
07:34PM -37.1247 144.1977 331° Northwest 402 463 22,900 1,680 Climbing Aus ATC (RADAR)
07:34PM -37.0950 144.1770 331° Northwest 406 467 22,900 1,680 Level FlightAware
07:35PM -37.0403 144.1406 331° Northwest 410 472 24,300 1,740 Climbing Aus ATC (RADAR)
07:35PM -37.0370 144.1380 331° Northwest 407 468 23,900 660 Descending FlightAware
07:35PM -36.9870 144.1040 331° Northwest 409 471 24,700 1,320 Climbing FlightAware
07:36PM -36.9100 144.0520 332° Northwest 425 489 25,600 1,080 Climbing FlightAware
07:37PM -36.8410 144.0060 332° Northwest 425 489 26,300 1,740 Climbing FlightAware
07:37PM -36.8343 144.0017 332° Northwest 426 490 26,800 1,200 Climbing Aus ATC (RADAR)
07:38PM -36.7630 143.9440 328° Northwest 429 494 27,200 780 Climbing FlightAware
07:38PM -36.6990 143.8810 322° Northwest 435 501 27,900 1,200 Climbing FlightAware
07:39PM -36.6270 143.8100 322° Northwest 435 501 28,900 1,260 Climbing FlightAware
07:40PM -36.5504 143.7346 322° Northwest 444 511 29,900 720 Climbing Aus ATC (RADAR)
07:40PM -36.5450 143.7300 322° Northwest 453 521 29,500 1,200 Descending FlightAware
07:40PM -36.4925 143.6780 322° Northwest 449 517 30,600 1,440 Climbing Aus ATC (RADAR)
07:41PM -36.4720 143.6590 322° Northwest 447 514 30,600 1,320 Level FlightAware
07:41PM -36.4070 143.5950 322° Northwest 432 497 31,800 960 Climbing FlightAware
07:42PM -36.3350 143.5250 322° Northwest 431 496 32,000 420 Climbing FlightAware
07:43PM -36.2675 143.4610 322° Northwest 439 505 32,400  Climbing Aus ATC (RADAR)
07:43PM -36.2700 143.4630 322° Northwest 437 503 32,000 -540 Descending FlightAware
07:43PM -36.2000 143.3950 322° Northwest 438 504 32,000 240 Level FlightAware
07:44PM -36.1386 143.3356 322° Northwest 441 507 32,400  Climbing Aus ATC (RADAR)
07:44PM -36.1350 143.3320 322° Northwest 445 512 32,000 120 Descending FlightAware
07:45PM -36.0656 143.2656 322° Northwest 441 507 32,500  Climbing Aus ATC (RADAR)
07:45PM -36.0120 143.2130 322° Northwest 444 511 32,000 -120 Descending FlightAware
07:46PM -35.9599 143.1647 322° Northwest 441 507 32,400 120 Climbing Aus ATC (RADAR)
07:46PM -35.9480 143.1530 322° Northwest 436 502 32,100 -480 Descending FlightAware
07:47PM -35.8860 143.0930 322° Northwest 435 501 32,000 -120 Descending FlightAware
07:47PM -35.8180 143.0290 322° Northwest 441 507 32,000 600 Level FlightAware
07:47PM -35.8146 143.0266 322° Northwest 438 504 32,400  Climbing Aus ATC (RADAR)
07:48PM -35.7520 142.9660 322° Northwest 441 507 32,000  Descending FlightAware
07:48PM -35.7421 142.9574 322° Northwest 438 504 32,400 720 Climbing Aus ATC (RADAR)
07:49PM -35.7023 142.9185 322° Northwest 438 504 32,400 -660 Level Aus ATC (RADAR)
07:49PM -35.6800 142.8970 322° Northwest 442 509 32,000 -420 Descending FlightAware
07:50PM -35.6080 142.8290 322° Northwest 441 507 32,000 240 Level FlightAware
07:50PM -35.5236 142.7504 322° Northwest 440 506 32,400  Climbing Aus ATC (RADAR)
07:50PM -35.5200 142.7450 322° Northwest 441 507 32,000 -540 Descending FlightAware
07:51PM -35.4540 142.6840 323° Northwest 435 501 32,000  Level FlightAware
07:52PM -35.3840 142.6180 322° Northwest 435 501 32,000  Level FlightAware
07:53PM -35.3190 142.5560 322° Northwest 442 509 32,000  Level FlightAware
07:53PM -35.2580 142.5000 322° Northwest 442 509 32,000 660 Level FlightAware
07:53PM -35.2405 142.4836 322° Northwest 440 506 32,500 720 Climbing Aus ATC (RADAR)
07:54PM -35.1838 142.4302 322° Northwest 442 509 32,500 -780 Level Aus ATC (RADAR)
07:54PM -35.1790 142.4250 322° Northwest 444 511 32,000 -720 Descending FlightAware
07:55PM -35.1120 142.3630 322° Northwest 444 511 32,000 660 Level FlightAware
07:55PM -35.1021 142.3544 322° Northwest 442 509 32,500 720 Climbing Aus ATC (RADAR)
07:55PM -35.0446 142.3015 322° Northwest 443 510 32,500 -900 Level Aus ATC (RADAR)
07:55PM -35.0460 142.3020 322° Northwest 445 512 32,000 -720 Descending FlightAware
07:56PM -34.9750 142.2350 322° Northwest 443 510 32,000 660 Level FlightAware
07:56PM -34.9715 142.2332 322° Northwest 441 507 32,500  Climbing Aus ATC (RADAR)
07:57PM -34.9080 142.1740 323° Northwest 442 509 32,000 -360 Descending FlightAware
07:58PM -34.8320 142.1040 323° Northwest 441 507 32,000  Level FlightAware
07:58PM -34.7700 142.0460 322° Northwest 442 509 32,000 300 Level FlightAware
07:59PM -34.6948 141.9776 322° Northwest 440 506 32,500  Climbing Aus ATC (RADAR)
07:59PM -34.6950 141.9780 322° Northwest 443 510 32,000  Descending FlightAware
07:59PM -34.6457 141.9326 322° Northwest 442 509 32,500  Climbing Aus ATC (RADAR)
08:00PM -34.6290 141.9170 322° Northwest 444 511 32,000 -480 Descending FlightAware
08:00PM -34.5400 141.8350 323° Northwest 443 510 32,000 300 Level FlightAware
08:01PM -34.4740 141.7751 323° Northwest 442 509 32,500  Climbing Aus ATC (RADAR)
08:01PM -34.4710 141.7710 323° Northwest 443 510 32,000  Descending FlightAware
08:02PM -34.4089 141.7153 323° Northwest 440 506 32,500  Climbing Aus ATC (RADAR)
08:02PM -34.3900 141.6970 323° Northwest 442 509 32,000 -540 Descending FlightAware
08:03PM -34.3390 141.6490 322° Northwest 442 509 32,000 360 Level FlightAware
08:04PM -34.2382 141.5605 322° Northwest 437 503 32,500  Climbing Aus ATC (RADAR)
08:04PM -34.2540 141.5680 322° Northwest 442 509 32,000 -600 Descending FlightAware
08:04PM -34.2050 141.5220 322° Northwest 442 509 32,000 300 Level FlightAware
08:05PM -34.1018 141.4374 322° Northwest 431 496 32,400  Climbing Aus ATC (RADAR)
08:05PM -34.1540 141.4740 322° Northwest 442 509 32,000 -480 Descending FlightAware
08:06PM -34.0110 141.3550 325° Northwest 427 491 32,000  Level FlightAware
08:07PM -33.9620 141.3090 322° Northwest 427 491 32,000  Level FlightAware
08:07PM -33.8810 141.2380 324° Northwest 428 493 32,000 360 Level FlightAware
08:08PM -33.8210 141.1847 324° Northwest 429 494 32,500  Climbing Aus ATC (RADAR)
08:08PM -33.8220 141.1840 324° Northwest 429 494 32,000  Descending FlightAware
08:08PM -33.7639 141.1334 324° Northwest 433 498 32,500 300 Climbing Aus ATC (RADAR)
08:09PM -33.7510 141.1210 324° Northwest 32,000 -180 Descending FlightAware
08:09PM -33.6906 141.0684 324° Northwest 436 502 32,400 360 Climbing Aus ATC (RADAR)
08:10PM -33.6341 141.0180 323° Northwest 435 501 32,500  Climbing Aus ATC (RADAR)
08:10PM -33.5777 140.9677 323° Northwest 435 501 32,400 -120 Descending Aus ATC (RADAR)
08:11PM -33.5291 140.9245 323° Northwest 435 501 32,400  Level Aus ATC (RADAR)
08:11PM -33.4718 140.8737 324° Northwest 438 504 32,400  Level Aus ATC (RADAR)
08:12PM -33.4154 140.8240 324° Northwest 435 501 32,400  Level Aus ATC (RADAR)
08:13PM -33.3498 140.7660 324° Northwest 441 507 32,400 -540 Level Aus ATC (RADAR)
08:13PM -33.3420 140.7590 324° Northwest 438 504 32,000 -540 Descending FlightAware
08:14PM -33.2710 140.6960 323° Northwest 440 506 32,000  Level FlightAware
08:14PM -33.1960 140.6310 324° Northwest 439 505 32,000 300 Level FlightAware
08:15PM -33.1290 140.5725 324° Northwest 439 505 32,500 120 Climbing Aus ATC (RADAR)
08:15PM -33.1250 140.5680 324° Northwest 438 504 32,100  Descending FlightAware
08:16PM -33.0717 140.5217 324° Northwest 441 507 32,500 -180 Climbing Aus ATC (RADAR)
08:16PM -33.0600 140.5120 324° Northwest 437 503 32,000 -180 Descending FlightAware
08:16PM -33.0080 140.4666 324° Northwest 429 494 32,400  Climbing Aus ATC (RADAR)
08:16PM -32.9930 140.4530 324° Northwest 435 501 32,000 -540 Descending FlightAware
08:17PM -32.9280 140.3960 324° Northwest 427 491 32,000  Level FlightAware
08:18PM -32.8580 140.3350 324° Northwest 426 490 32,000 480 Level FlightAware
08:18PM -32.8531 140.3311 324° Northwest 437 503 32,400 720 Climbing Aus ATC (RADAR)
08:18PM -32.8051 140.2900 324° Northwest 430 495 32,400 -480 Level Aus ATC (RADAR)
08:19PM -32.7660 140.2560 324° Northwest 424 488 32,000  Descending FlightAware
08:19PM -32.7171 140.2136 324° Northwest 428 493 32,400  Climbing Aus ATC (RADAR)
08:19PM -32.7040 140.2010 324° Northwest 422 486 32,000  Descending FlightAware
08:20PM -32.6449 140.1504 324° Northwest 432 497 32,400  Climbing Aus ATC (RADAR)
08:20PM -32.6380 140.1450 324° Northwest 419 482 32,000  Descending FlightAware
08:21PM -32.5892 140.1030 324° Northwest 427 491 32,400  Climbing Aus ATC (RADAR)
08:21PM -32.5700 140.0850 324° Northwest 418 481 32,000 -420 Descending FlightAware
08:22PM -32.4950 140.0210 324° Northwest 423 487 32,000  Level FlightAware
08:22PM -32.4300 139.9650 324° Northwest 417 480 32,000 720 Level FlightAware
08:22PM -32.4304 139.9659 324° Northwest 423 487 32,500  Climbing Aus ATC (RADAR)
08:23PM -32.3690 139.9130 324° Northwest 423 487 32,000  Descending FlightAware
08:23PM -32.3196 139.8703 324° Northwest 422 486 32,500  Climbing Aus ATC (RADAR)
08:24PM -32.2730 139.8310 324° Northwest 421 484 32,000 -480 Descending FlightAware
08:25PM -32.2130 139.7800 324° Northwest 421 484 32,000 300 Level FlightAware
08:25PM -32.1299 139.7092 324° Northwest 421 484 32,500  Climbing Aus ATC (RADAR)
08:26PM -32.1260 139.7050 324° Northwest 421 484 32,000  Descending FlightAware
08:26PM -32.0516 139.6419 324° Northwest 420 483 32,500  Climbing Aus ATC (RADAR)
08:26PM -32.0530 139.6430 324° Northwest 418 481 32,000 -600 Descending FlightAware
08:27PM -31.9900 139.5890 324° Northwest 418 481 32,000 600 Level FlightAware
08:27PM -31.9658 139.5708 324° Northwest 415 478 32,500  Climbing Aus ATC (RADAR)
08:28PM -31.9420 139.5480 324° Northwest 418 481 32,000  Descending FlightAware
08:28PM -31.8477 139.4689 324° Northwest 420 483 32,500  Climbing Aus ATC (RADAR)
08:29PM -31.8780 139.4930 324° Northwest 418 481 32,000  Descending FlightAware
08:30PM -31.7223 139.3672 324° Northwest 411 473 32,500 240 Climbing Aus ATC (RADAR)
08:30PM -31.6669 139.3178 323° Northwest 421 484 32,500  Level Aus ATC (RADAR)
08:31PM -31.6115 139.2710 324° Northwest 423 487 32,500  Level Aus ATC (RADAR)
08:32PM -31.4935 139.1696 324° Northwest 422 486 32,500  Level Aus ATC (RADAR)
08:33PM -31.4227 139.1117 325° Northwest 418 481 32,500  Level Aus ATC (RADAR)
08:34PM -31.3609 139.0646 327° Northwest 408 470 32,500  Level Aus ATC (RADAR)
08:34PM -31.3068 139.0195 324° Northwest 407 468 32,500  Level Aus ATC (RADAR)
08:35PM -31.2380 138.9573 322° Northwest 412 474 32,500  Level Aus ATC (RADAR)
08:36PM -31.1469 138.8820 325° Northwest 405 466 32,500  Level Aus ATC (RADAR)
08:37PM -31.0709 138.8211 326° Northwest 401 461 32,500  Level Aus ATC (RADAR)
08:37PM -31.0185 138.7800 326° Northwest 396 456 32,500  Level Aus ATC (RADAR)
08:38PM -30.9351 138.7058 323° Northwest 408 470 32,500  Level Aus ATC (RADAR)
08:39PM -30.8442 138.6345 326° Northwest 402 463 32,500  Level Aus ATC (RADAR)
08:40PM -30.7984 138.5997 327° Northwest 400 460 32,500 -60 Level Aus ATC (RADAR)
08:42PM -30.5578 138.4233 328° Northwest 34,000 -60 Climbing Aus ATC (Calculated)
08:44PM -30.4201 138.3241 328° Northwest  Level Estimated
08:45PM -30.3292 138.2588 328° Northwest  Level Estimated
08:46PM -30.2383 138.1937 328° Northwest  Level Estimated
08:47PM -30.1473 138.1286 328° Northwest  Level Estimated
08:47PM -30.1212 138.1057 328° Northwest 34,000  Level Aus ATC (Calculated)
08:49PM -29.9755 138.0021 328° Northwest  Level Estimated
08:50PM -29.8845 137.9375 328° Northwest  Level Estimated
08:51PM -29.7934 137.8730 328° Northwest  Level Estimated
08:52PM -29.7022 137.8086 328° Northwest  Level Estimated
08:52PM -29.7066 137.8073 328° Northwest 34,000  Level Aus ATC (Calculated)
08:52PM -29.7066 137.8072 328° Northwest 34,000 -60 Level Aus ATC (Calculated)
08:54PM -29.5591 137.7035 329° Northwest  Level Estimated
08:55PM -29.4679 137.6394 329° Northwest  Level Estimated
08:56PM -29.3766 137.5755 329° Northwest  Level Estimated
08:57PM -29.2854 137.5116 329° Northwest  Level Estimated
08:57PM -29.2430 137.4770 329° Northwest 34,000  Level Aus ATC (Calculated)
08:59PM -29.0953 137.3743 329° Northwest  Level Estimated
08:59PM -29.0515 137.3416 329° Northwest 34,000  Level Aus ATC (Calculated)
09:00PM -28.9477 137.2685 329° Northwest 34,000 -120 Level Aus ATC (Calculated)
09:01PM -28.8569 137.2047 329° Northwest 34,000 -120 Level Aus ATC (Calculated)
09:02PM -28.8089 137.1727 329° Northwest  Level Estimated
09:02PM -28.7774 137.1489 329° Northwest 34,000  Level Aus ATC (Calculated)
09:03PM -28.7078 137.1002 329° Northwest 34,000 -120 Level Aus ATC (Calculated)
09:04PM -28.6278 137.0462 329° Northwest  Level Estimated
09:05PM -28.5735 137.0081 329° Northwest  Level Estimated
09:05PM -28.5403 136.9832 329° Northwest 34,000  Level Aus ATC (Calculated)
09:07PM -28.4150 136.8977 329° Northwest  Level Estimated
09:08PM -28.3233 136.8352 329° Northwest  Level Estimated
09:08PM -28.3003 136.8163 329° Northwest 34,000  Level Aus ATC (Calculated)
09:09PM -28.2316 136.7729 329° Northwest  Level Estimated
09:09PM -28.1723 136.7281 329° Northwest 34,000  Level Aus ATC (Calculated)
09:10PM -28.1580 136.7198 329° Northwest  Level Estimated
09:11PM -28.0452 136.6423 329° Northwest  Level Estimated
09:12PM -27.9534 136.5803 329° Northwest  Level Estimated
09:13PM -27.8615 136.5185 329° Northwest  Level Estimated
09:14PM -27.7696 136.4568 329° Northwest  Level Estimated
09:14PM -27.7406 136.4354 329° Northwest 34,000  Level Aus ATC (Calculated)
09:15PM -27.6446 136.3707 329° Northwest 34,000 -180 Level Aus ATC (Calculated)
09:17PM -27.5081 136.2796 329° Northwest  Level Estimated
09:18PM -27.4160 136.2183 329° Northwest  Level Estimated
09:19PM -27.3240 136.1571 329° Northwest  Level Estimated
09:20PM -27.2319 136.0960 329° Northwest  Level Estimated
09:20PM -27.1640 136.0487 329° Northwest 34,000  Level Aus ATC (Calculated)
09:21PM -27.1397 136.0350 329° Northwest  Level Estimated
09:22PM -27.0273 135.9585 330° Northwest  Level Estimated
09:23PM -26.9351 135.8978 330° Northwest  Level Estimated
09:24PM -26.8428 135.8371 330° Northwest  Level Estimated
09:25PM -26.7506 135.7766 330° Northwest  Level Estimated
09:25PM -26.7309 135.7613 330° Northwest 34,000  Level Aus ATC (Calculated)
09:26PM -26.6288 135.6939 140° Southeast 26,500 -1,140 Descending Aus ATC (Calculated)
09:27PM -26.6320 135.6970 330° Northwest 380 437 32,000 4,260 Climbing FlightAware
09:28PM -26.5133 135.6187 330° Northwest  Level Estimated
09:28PM -26.5640 135.6510 329° Northwest 380 437 32,000  Level FlightAware
09:28PM -26.4940 135.6060 330° Northwest 381 438 32,000  Level FlightAware
09:29PM -26.4310 135.5640 329° Northwest 383 441 32,000  Level FlightAware
09:29PM -26.3590 135.5166 328° Northwest 26,500  Descending Aus ATC (Calculated)
09:30PM -26.3051 135.4813 328° Northwest 26,500 1,020 Level Aus ATC (Calculated)
09:31PM -26.1431 135.3754 326° Northwest 26,500 1,200 Level Aus ATC (Calculated)
09:33PM -26.0201 135.2952 330° Northwest  Level FlightAware Approximate
09:33PM -26.0350 135.3049 320° Northwest 26,500  Level Aus ATC (Calculated)
09:33PM -26.0350 135.3049 320° Northwest 26,500 3,240 Level Aus ATC (Calculated)
09:34PM -25.9270 135.2346 163° South 26,500 3,780 Level Aus ATC (Calculated)
09:34PM -25.9780 135.2520 330° Northwest 377 434 32,000 5,400 Climbing FlightAware
09:35PM -25.9010 135.1910 325° Northwest 379 436 32,000  Level FlightAware
09:36PM -25.8380 135.1410 324° Northwest 379 436 32,000  Level FlightAware
09:36PM -25.7648 135.1294 244° Southwest 26,500  Descending Aus ATC (Calculated)
09:36PM -25.7800 135.0950 324° Northwest 381 438 32,000 3,900 Climbing FlightAware
09:37PM -25.7110 135.0400 324° Northwest 381 438 32,000  Level FlightAware
09:38PM -25.6025 135.0245 201° Southwest 26,500  Descending Aus ATC (Calculated)
09:38PM -25.6610 135.0000 324° Northwest 380 437 32,000 6,600 Climbing FlightAware
09:38PM -25.5940 134.9470 324° Northwest 380 437 32,000  Level FlightAware
09:39PM -25.5360 134.9020 325° Northwest 380 437 32,000  Level FlightAware
09:40PM -25.4790 134.8560 324° Northwest 380 437 32,000  Level FlightAware
09:41PM -25.4000 134.7940 325° Northwest 382 440 32,000  Level FlightAware
09:42PM -25.3350 134.7430 325° Northwest 382 440 32,000  Level FlightAware
09:42PM -25.2780 134.6980 324° Northwest 384 442 32,000  Level FlightAware
09:43PM -25.1153 134.7113 214° Southwest 26,500  Descending Aus ATC (Calculated)
09:43PM -25.2070 134.6420 324° Northwest 386 444 32,000 5,580 Climbing FlightAware
09:44PM -25.1480 134.5960 325° Northwest 387 445 32,000 -180 Level FlightAware
09:44PM -25.0910 134.5510 324° Northwest 381 438 31,800 -540 Descending FlightAware
09:45PM -25.0330 134.5060 325° Northwest 364 419 31,300 -900 Descending FlightAware
09:46PM -24.9780 134.4630 325° Northwest 358 412 30,600 -1,080 Descending FlightAware
09:46PM -24.8803 134.5615 252° West 2,300 -1,020 Descending Aus ATC (Calculated)
09:46PM -24.9220 134.4190 325° Northwest 357 411 29,900 20,100 Climbing FlightAware
09:47PM -24.8640 134.3730 324° Northwest 361 415 29,100 -1,920 Descending FlightAware
09:47PM -24.7355 134.4697 284° West 2,300 -2,160 Descending Aus ATC (Calculated)
09:49PM -24.6830 134.2320 324° Northwest 358 412 24,500 7,500 Climbing FlightAware
09:50PM -24.5181 134.3325 229° Southwest 2,300 -1,920 Descending Aus ATC (Calculated)
09:50PM -24.6300 134.1910 324° Northwest 349 402 23,200 18,180 Climbing FlightAware
09:50PM -24.5181 134.3325 252° West 2,300 -2,220 Descending Aus ATC (Calculated)
09:51PM -24.5740 134.1480 324° Northwest 342 394 21,700 14,580 Climbing FlightAware
09:51PM -24.5170 134.1040 325° Northwest 330 380 20,300 -1,800 Descending FlightAware
09:52PM -24.4700 134.0670 324° Northwest 319 367 19,200 -1,680 Descending FlightAware
09:53PM -24.3007 134.1956 233° Southwest 2,300 -1,620 Descending Aus ATC (Calculated)
09:53PM -24.4180 134.0270 325° Northwest 311 358 18,000 21,480 Climbing FlightAware
09:53PM -24.3720 133.9920 325° Northwest 302 348 17,000 -1,620 Descending FlightAware
09:54PM -24.2281 134.1501 243° Southwest 2,300 -1,620 Descending Aus ATC (Calculated)
09:54PM -24.3210 133.9520 325° Northwest 291 335 15,800 6,900 Climbing FlightAware
09:55PM -24.2460 133.8940 325° Northwest 319 367 14,200 -1,620 Descending FlightAware
09:56PM -24.0105 134.0139 218° Southwest 2,300 -1,800 Descending Aus ATC (Calculated)
09:56PM -24.1940 133.8540 325° Northwest 325 374 13,000 8,520 Climbing FlightAware
09:57PM -24.1350 133.8080 325° Northwest 333 383 11,700 -1,800 Descending FlightAware
09:57PM -24.0860 133.7710 325° Northwest 339 390 10,400 -1,800 Descending FlightAware
09:58PM -24.0530 133.7450 324° Northwest 327 376 9,800 -1,200 Descending FlightAware
09:58PM -24.0330 133.7310 327° Northwest 316 364 9,600 -660 Descending FlightAware
09:59PM -23.9980 133.7040 325° Northwest 296 341 9,300 -1,080 Descending FlightAware
09:59PM -23.7927 133.8782 226° Southwest 1,800 -1,500 Descending Aus ATC (Calculated)
09:59PM -23.8005 133.8896 228° Southwest 1,800 16,320 Level Aus ATC (Calculated)
09:59PM -23.8005 133.8896 228° Southwest 1,800 45,300 Level Aus ATC (Calculated)
09:59PM -23.9690 133.6810 325° Northwest 290 334 8,600 11,220 Climbing FlightAware
09:59PM -23.9410 133.6600 325° Northwest 291 335 8,000 -780 Descending FlightAware
10:02PM -23.8265 133.8666 59° Northeast  Level Estimated
10:03PM -23.8067 133.9022 59° Northeast  Level Estimated
10:04PM -23.8067 133.9022 31° Northeast  Level Estimated
10:04PM -23.6940 133.6930 31° Northeast 194 223 5,100  Level FlightAware
10:04PM -23.7040 133.7130 119° Southeast 177 204 5,100 -360 Level FlightAware
10:05PM -23.7150 133.7340 120° Southeast 163 188 4,800 -900 Descending FlightAware
10:05PM -23.7260 133.7540 121° Southeast 161 185 4,300 -960 Descending FlightAware
10:06PM -23.7370 133.7740 121° Southeast 153 176 3,900 -900 Descending FlightAware
10:06PM -23.7460 133.7910 120° Southeast 145 167 3,500 -780 Descending FlightAware
10:07PM -23.7550 133.8080 120° Southeast 133 153 3,200 -780 Descending FlightAware
10:07PM -23.7640 133.8250 120° Southeast 135 155 2,800 -780 Descending FlightAware
10:08PM -23.7730 133.8420 120° Southeast 131 151 2,500 -720 Descending FlightAware
10:08PM -23.7800 133.8550 120° Southeast 133 153 2,200 -780 Descending FlightAware
10:09PM -23.7910 133.8740 122° Southeast 134 154 1,800 -780 Descending FlightAware
10:09PM -23.7980 133.8880 119° Southeast 131 151 1,500 -780 Descending FlightAware
10:09PM -23.8070 133.9040 119° Southeast 82 94 -2,940 Descending FlightAware
10:10PM -23.8080 133.9060 119° Southeast 33 38  Level FlightAware